Time;durP1;ratioP1;P1;durP2;ratioP2;P2;SDS_P1;SDS_P2;PMS_P1;PMS_P2;Temp;Humidity;BMP_temperature;BMP_pressure;BME280_temperature;BME280_humidity;BME280_pressure;Samples;Min_cycle;Max_cycle;Signal;HPM_P1;HPM_P2
2023/04/22 00:00:05;;;;;;;;;;;;;;;;;;1037032;28;3040;-49
2023/04/22 00:00:35;;;;;;;;;;;;;;;;;;1036798;28;3874;-50
2023/04/22 00:01:20;;;;;;;;;;;;;;;;;;1038079;28;2945;-49
2023/04/22 00:01:50;;;;;;;;;;;;;;;;;;1037307;28;3874;-48
2023/04/22 00:02:22;;;;;;;;;;;;;;;;;;1038169;28;1812;-50
2023/04/22 00:02:52;;;;;;;;;;;;;;;;;;1036478;28;4042;-49
2023/04/22 00:03:22;;;;;;;;;;;;;;;;;;1039097;28;2945;-49
2023/04/22 00:03:53;;;;;;;;;;;;;;;;;;1037199;28;4044;-48
2023/04/22 00:04:23;;;;;;;;;;;;;;;;;;1039130;28;3000;-47
2023/04/22 00:04:56;;;;;;;;;;;;;;;;;;1037836;28;4047;-51
2023/04/22 00:05:26;;;;;;;;;;;;;;;;;;1037787;28;2949;-49
2023/04/22 00:05:56;;;;;;;;;;;;;;;;;;1036201;28;3915;-47
2023/04/22 00:06:26;;;;;;;;;;;;;;;;;;1038083;28;3043;-53
2023/04/22 00:06:57;;;;;;;;;;;;;;;;;;1035873;28;3869;-55
2023/04/22 00:07:27;;;;;;;;;;;;;;;;;;1037926;28;2956;-53
2023/04/22 00:07:57;;;;;;;;;;;;;;;;;;1038240;28;4217;-50
2023/04/22 00:08:28;;;;;;;;;;;;;;;;;;1038742;28;1906;-51
2023/04/22 00:08:58;;;;;;;;;;;;;;;;;;1037131;28;4614;-54
2023/04/22 00:09:28;;;;;;;;;;;;;;;;;;1038062;28;3008;-52
2023/04/22 00:09:59;;;;;;;;;;;;;;;;;;1034518;28;3864;-52
2023/04/22 00:10:29;;;;;;;;;;;;;;;;;;1033586;28;2874;-49
2023/04/22 00:10:59;;;;;;;;;;;;;;;;;;1033753;28;3973;-52
2023/04/22 00:11:30;;;;;;;;;;;;;;;;;;1033107;28;2992;-51
2023/04/22 00:12:01;;;;;;;;;;;;;;;;;;1037814;28;3857;-50
2023/04/22 00:12:31;;;;;;;;;;;;;;;;;;1040054;28;1669;-51
2023/04/22 00:13:01;;;;;;;;;;;;;;;;;;1037852;28;3793;-50
2023/04/22 00:13:32;;;;;;;;;;;;;;;;;;1038960;28;2987;-49
2023/04/22 00:14:02;;;;;;;;;;;;;;;;;;1036228;28;3773;-52
2023/04/22 00:14:33;;;;;;;;;;;;;;;;;;1040380;28;2916;-53
2023/04/22 00:15:04;;;;;;;;;;;;;;;;;;1038205;28;3823;-48
2023/04/22 00:15:34;;;;;;;;;;;;;;;;;;1038360;28;4082;-51
2023/04/22 00:16:04;;;;;;;;;;;;;;;;;;1037886;28;3028;-52
2023/04/22 00:16:35;;;;;;;;;;;;;;;;;;1038600;28;3904;-49
2023/04/22 00:17:08;;;;;;;;;;;;;;;;;;1036595;28;2970;-51
2023/04/22 00:17:39;;;;;;;;;;;;;;;;;;1040446;28;4034;-51
2023/04/22 00:18:12;;;;;;;;;;;;;;;;;;1038658;28;1707;-53
2023/04/22 00:18:43;;;;;;;;;;;;;;;;;;1038223;28;4046;-50
2023/04/22 00:19:13;;;;;;;;;;;;;;;;;;1036739;28;2956;-49
2023/04/22 00:19:43;;;;;;;;;;;;;;;;;;1038317;28;3870;-47
2023/04/22 00:20:14;;;;;;;;;;;;;;;;;;1039015;28;1660;-50
2023/04/22 00:20:44;;;;;;;;;;;;;;;;;;1037932;28;4167;-53
2023/04/22 00:21:15;;;;;;;;;;;;;;;;;;1038072;28;2872;-49
2023/04/22 00:21:45;;;;;;;;;;;;;;;;;;1038352;28;4080;-51
2023/04/22 00:22:15;;;;;;;;;;;;;;;;;;1034924;28;2954;-54
2023/04/22 00:22:45;;;;;;;;;;;;;;;;;;1029328;28;4100;-49
2023/04/22 00:23:16;;;;;;;;;;;;;;;;;;1030489;28;1715;-50
2023/04/22 00:23:46;;;;;;;;;;;;;;;;;;1029355;28;3814;-50
2023/04/22 00:24:16;;;;;;;;;;;;;;;;;;1034355;28;2013;-49
2023/04/22 00:24:47;;;;;;;;;;;;;;;;;;1038118;28;4062;-48
2023/04/22 00:25:18;;;;;;;;;;;;;;;;;;1037179;28;2951;-57
2023/04/22 00:25:48;;;;;;;;;;;;;;;;;;1037791;28;4085;-49
2023/04/22 00:26:18;;;;;;;;;;;;;;;;;;1038383;28;2918;-51
2023/04/22 00:26:49;;;;;;;;;;;;;;;;;;1037816;28;4047;-52
2023/04/22 00:27:19;;;;;;;;;;;;;;;;;;1037182;28;2999;-50
2023/04/22 00:27:49;;;;;;;;;;;;;;;;;;1038190;28;3889;-52
2023/04/22 00:28:19;;;;;;;;;;;;;;;;;;1037590;28;3008;-50
2023/04/22 00:28:50;;;;;;;;;;;;;;;;;;1036275;28;4044;-52
2023/04/22 00:29:20;;;;;;;;;;;;;;;;;;1034135;28;4876;-49
2023/04/22 00:29:50;;;;;;;;;;;;;;;;;;1036615;28;3945;-51
2023/04/22 00:30:20;;;;;;;;;;;;;;;;;;1038104;28;1831;-51
2023/04/22 00:30:51;;;;;;;;;;;;;;;;;;1034083;28;4388;-52
2023/04/22 00:31:21;;;;;;;;;;;;;;;;;;1033886;28;3002;-52
2023/04/22 00:31:51;;;;;;;;;;;;;;;;;;1036525;28;4038;-52
2023/04/22 00:32:22;;;;;;;;;;;;;;;;;;1038211;28;2988;-50
2023/04/22 00:32:52;;;;;;;;;;;;;;;;;;1037239;28;3861;-53
2023/04/22 00:33:22;;;;;;;;;;;;;;;;;;1038156;28;3174;-53
2023/04/22 00:33:52;;;;;;;;;;;;;;;;;;1038870;28;3782;-53
2023/04/22 00:34:23;;;;;;;;;;;;;;;;;;1039055;28;1931;-51
2023/04/22 00:34:53;;;;;;;;;;;;;;;;;;1037445;28;4051;-49
2023/04/22 00:35:23;;;;;;;;;;;;;;;;;;1037619;28;2993;-50
2023/04/22 00:35:54;;;;;;;;;;;;;;;;;;1037693;28;4604;-48
2023/04/22 00:36:24;;;;;;;;;;;;;;;;;;1037835;28;2939;-52
2023/04/22 00:36:55;;;;;;;;;;;;;;;;;;1037754;28;4092;-55
2023/04/22 00:37:27;;;;;;;;;;;;;;;;;;1038053;28;3540;-54
2023/04/22 00:37:57;;;;;;;;;;;;;;;;;;1038218;28;4064;-46
2023/04/22 00:38:27;;;;;;;;;;;;;;;;;;1037980;28;2753;-51
2023/04/22 00:38:57;;;;;;;;;;;;;;;;;;1034189;28;3980;-49
2023/04/22 00:39:28;;;;;;;;;;;;;;;;;;1035478;28;1702;-47
2023/04/22 00:39:59;;;;;;;;;;;;;;;;;;1033260;28;4123;-52
2023/04/22 00:40:29;;;;;;;;;;;;;;;;;;1034380;28;1464;-55
2023/04/22 00:41:00;;;;;;;;;;;;;;;;;;1037855;28;4126;-49
2023/04/22 00:41:31;;;;;;;;;;;;;;;;;;1038648;28;2255;-52
2023/04/22 00:42:01;;;;;;;;;;;;;;;;;;1038304;28;3950;-50
2023/04/22 00:42:32;;;;;;;;;;;;;;;;;;1038399;28;3065;-50
2023/04/22 00:43:02;;;;;;;;;;;;;;;;;;1036917;28;4212;-51
2023/04/22 00:43:32;;;;;;;;;;;;;;;;;;1038453;28;3520;-52
2023/04/22 00:44:03;;;;;;;;;;;;;;;;;;1038201;28;3947;-54
2023/04/22 00:44:34;;;;;;;;;;;;;;;;;;1037572;28;4064;-55
2023/04/22 00:45:08;;;;;;;;;;;;;;;;;;1037723;28;2955;-50
2023/04/22 00:45:38;;;;;;;;;;;;;;;;;;1038480;28;3870;-52
2023/04/22 00:46:09;;;;;;;;;;;;;;;;;;1038891;28;3006;-54
2023/04/22 00:46:39;;;;;;;;;;;;;;;;;;1036823;28;4100;-52
2023/04/22 00:47:09;;;;;;;;;;;;;;;;;;1037955;28;3028;-51
2023/04/22 00:47:40;;;;;;;;;;;;;;;;;;1037306;28;4069;-50
2023/04/22 00:48:11;;;;;;;;;;;;;;;;;;1036747;28;2730;-51
2023/04/22 00:48:42;;;;;;;;;;;;;;;;;;1038400;28;4079;-52
2023/04/22 00:49:13;;;;;;;;;;;;;;;;;;1038516;28;2829;-53
2023/04/22 00:49:43;;;;;;;;;;;;;;;;;;1033878;28;4060;-55
2023/04/22 00:50:14;;;;;;;;;;;;;;;;;;1034230;28;2799;-53
2023/04/22 00:50:44;;;;;;;;;;;;;;;;;;1032963;28;4066;-52
2023/04/22 00:51:15;;;;;;;;;;;;;;;;;;1034521;28;1712;-47
2023/04/22 00:51:45;;;;;;;;;;;;;;;;;;1038275;28;4169;-54
2023/04/22 00:52:15;;;;;;;;;;;;;;;;;;1037980;28;2884;-51
2023/04/22 00:52:45;;;;;;;;;;;;;;;;;;1038304;28;4077;-50
2023/04/22 00:53:16;;;;;;;;;;;;;;;;;;1038888;28;2894;-50
2023/04/22 00:53:46;;;;;;;;;;;;;;;;;;1037918;28;4034;-48
2023/04/22 00:54:16;;;;;;;;;;;;;;;;;;1038473;28;2206;-51
2023/04/22 00:54:48;;;;;;;;;;;;;;;;;;1038543;28;4028;-51
2023/04/22 00:55:18;;;;;;;;;;;;;;;;;;1037325;28;2937;-56
2023/04/22 00:55:49;;;;;;;;;;;;;;;;;;1038523;28;3871;-52
2023/04/22 00:56:20;;;;;;;;;;;;;;;;;;1039238;28;1739;-48
2023/04/22 00:56:50;;;;;;;;;;;;;;;;;;1038288;28;4108;-51
2023/04/22 00:57:21;;;;;;;;;;;;;;;;;;1037904;28;3014;-50
2023/04/22 00:57:52;;;;;;;;;;;;;;;;;;1038194;28;3979;-49
2023/04/22 00:58:24;;;;;;;;;;;;;;;;;;1038350;28;1649;-49
2023/04/22 00:58:55;;;;;;;;;;;;;;;;;;1037335;28;4070;-49
2023/04/22 00:59:25;;;;;;;;;;;;;;;;;;1037392;28;1837;-55
2023/04/22 00:59:56;;;;;;;;;;;;;;;;;;1038545;28;3976;-54
2023/04/22 01:00:27;;;;;;;;;;;;;;;;;;1038937;28;1745;-52
2023/04/22 01:00:57;;;;;;;;;;;;;;;;;;1037476;28;4145;-49
2023/04/22 01:01:28;;;;;;;;;;;;;;;;;;1038859;28;1717;-52
2023/04/22 01:01:59;;;;;;;;;;;;;;;;;;1038161;28;3740;-52
2023/04/22 01:02:29;;;;;;;;;;;;;;;;;;1037978;28;2960;-46
2023/04/22 01:03:00;;;;;;;;;;;;;;;;;;1038214;28;3817;-57
2023/04/22 01:03:31;;;;;;;;;;;;;;;;;;1038340;28;1447;-55
2023/04/22 01:04:02;;;;;;;;;;;;;;;;;;1038582;28;3995;-50
2023/04/22 01:04:33;;;;;;;;;;;;;;;;;;1039030;28;1824;-49
2023/04/22 01:05:04;;;;;;;;;;;;;;;;;;1037860;28;3883;-49
2023/04/22 01:05:35;;;;;;;;;;;;;;;;;;1038447;28;4035;-53
2023/04/22 01:06:06;;;;;;;;;;;;;;;;;;1038551;28;1696;-50
2023/04/22 01:06:38;;;;;;;;;;;;;;;;;;1038067;28;3809;-52
2023/04/22 01:07:08;;;;;;;;;;;;;;;;;;1037873;28;2845;-50
2023/04/22 01:07:38;;;;;;;;;;;;;;;;;;1037532;28;4142;-50
2023/04/22 01:08:09;;;;;;;;;;;;;;;;;;1038218;28;2868;-54
2023/04/22 01:08:39;;;;;;;;;;;;;;;;;;1038312;28;3923;-50
2023/04/22 01:09:10;;;;;;;;;;;;;;;;;;1038556;28;1664;-53
2023/04/22 01:09:40;;;;;;;;;;;;;;;;;;1038599;28;4012;-52
2023/04/22 01:10:10;;;;;;;;;;;;;;;;;;1038833;28;2457;-50
2023/04/22 01:10:41;;;;;;;;;;;;;;;;;;1038073;28;4083;-52
2023/04/22 01:11:12;;;;;;;;;;;;;;;;;;1039072;28;1975;-55
2023/04/22 01:11:43;;;;;;;;;;;;;;;;;;1038369;28;4077;-51
2023/04/22 01:12:13;;;;;;;;;;;;;;;;;;1038720;28;1903;-54
2023/04/22 01:12:44;;;;;;;;;;;;;;;;;;1037907;28;3926;-54
2023/04/22 01:13:14;;;;;;;;;;;;;;;;;;1037701;28;2968;-48
2023/04/22 01:13:45;;;;;;;;;;;;;;;;;;1038575;28;3910;-50
2023/04/22 01:14:15;;;;;;;;;;;;;;;;;;1038806;28;1824;-49
2023/04/22 01:14:45;;;;;;;;;;;;;;;;;;1037596;28;4115;-52
2023/04/22 01:15:16;;;;;;;;;;;;;;;;;;1039192;28;1682;-52
2023/04/22 01:15:46;;;;;;;;;;;;;;;;;;1038279;28;4426;-53
2023/04/22 01:16:17;;;;;;;;;;;;;;;;;;1037825;28;2529;-52
2023/04/22 01:16:48;;;;;;;;;;;;;;;;;;1038323;28;4038;-47
2023/04/22 01:17:20;;;;;;;;;;;;;;;;;;1038847;28;1700;-53
2023/04/22 01:17:52;;;;;;;;;;;;;;;;;;1038394;28;4307;-47
2023/04/22 01:18:22;;;;;;;;;;;;;;;;;;1038104;28;2729;-52
2023/04/22 01:18:53;;;;;;;;;;;;;;;;;;1037631;28;3789;-55
2023/04/22 01:19:23;;;;;;;;;;;;;;;;;;1038497;28;3201;-50
2023/04/22 01:19:54;;;;;;;;;;;;;;;;;;1037673;28;4007;-52
2023/04/22 01:20:28;;;;;;;;;;;;;;;;;;1036721;28;2964;-51
2023/04/22 01:20:58;;;;;;;;;;;;;;;;;;1036602;28;4050;-51
2023/04/22 01:21:32;;;;;;;;;;;;;;;;;;1039726;28;3168;-50
2023/04/22 01:22:02;;;;;;;;;;;;;;;;;;1037528;28;3756;-49
2023/04/22 01:22:35;;;;;;;;;;;;;;;;;;1036739;28;2966;-50
2023/04/22 01:23:08;;;;;;;;;;;;;;;;;;1038730;28;3909;-50
2023/04/22 01:23:39;;;;;;;;;;;;;;;;;;1038682;28;4025;-52
2023/04/22 01:24:09;;;;;;;;;;;;;;;;;;1038093;28;2663;-52
2023/04/22 01:24:40;;;;;;;;;;;;;;;;;;1037843;28;3914;-52
2023/04/22 01:25:10;;;;;;;;;;;;;;;;;;1039276;28;1645;-53
2023/04/22 01:25:41;;;;;;;;;;;;;;;;;;1037789;28;5349;-49
2023/04/22 01:26:11;;;;;;;;;;;;;;;;;;1039091;28;2698;-50
2023/04/22 01:26:42;;;;;;;;;;;;;;;;;;1037976;28;4463;-53
2023/04/22 01:27:12;;;;;;;;;;;;;;;;;;1039118;28;1599;-53
2023/04/22 01:27:43;;;;;;;;;;;;;;;;;;1037929;28;4135;-49
2023/04/22 01:28:13;;;;;;;;;;;;;;;;;;1038469;28;1669;-52
2023/04/22 01:28:44;;;;;;;;;;;;;;;;;;1038541;28;4307;-52
2023/04/22 01:29:14;;;;;;;;;;;;;;;;;;1039322;28;1751;-49
2023/04/22 01:29:45;;;;;;;;;;;;;;;;;;1037962;28;3978;-53
2023/04/22 01:30:15;;;;;;;;;;;;;;;;;;1038700;28;2817;-50
2023/04/22 01:30:47;;;;;;;;;;;;;;;;;;1038214;28;3785;-50
2023/04/22 01:31:17;;;;;;;;;;;;;;;;;;1039243;28;1958;-50
2023/04/22 01:31:48;;;;;;;;;;;;;;;;;;1037750;28;4129;-49
2023/04/22 01:32:18;;;;;;;;;;;;;;;;;;1038476;28;1744;-56
2023/04/22 01:32:49;;;;;;;;;;;;;;;;;;1038245;28;3858;-50
2023/04/22 01:33:19;;;;;;;;;;;;;;;;;;1038958;28;2103;-54
2023/04/22 01:33:50;;;;;;;;;;;;;;;;;;1037751;28;3809;-51
2023/04/22 01:34:20;;;;;;;;;;;;;;;;;;1035394;28;2906;-54
2023/04/22 01:34:50;;;;;;;;;;;;;;;;;;1033523;28;3884;-49
2023/04/22 01:35:21;;;;;;;;;;;;;;;;;;1034917;28;2207;-49
2023/04/22 01:35:51;;;;;;;;;;;;;;;;;;1033130;28;3887;-49
2023/04/22 01:36:21;;;;;;;;;;;;;;;;;;1037952;28;2719;-49
2023/04/22 01:36:51;;;;;;;;;;;;;;;;;;1038193;28;4059;-50
2023/04/22 01:37:22;;;;;;;;;;;;;;;;;;1038071;28;2987;-52
2023/04/22 01:37:52;;;;;;;;;;;;;;;;;;1038409;28;3921;-52
2023/04/22 01:38:22;;;;;;;;;;;;;;;;;;1038855;28;2151;-51
2023/04/22 01:38:53;;;;;;;;;;;;;;;;;;1037126;28;3837;-52
2023/04/22 01:39:23;;;;;;;;;;;;;;;;;;1038383;28;2894;-50
2023/04/22 01:39:53;;;;;;;;;;;;;;;;;;1038297;28;3860;-52
2023/04/22 01:40:25;;;;;;;;;;;;;;;;;;1037798;28;1919;-50
2023/04/22 01:40:55;;;;;;;;;;;;;;;;;;1037431;28;3973;-51
2023/04/22 01:41:25;;;;;;;;;;;;;;;;;;1038392;28;1807;-53
2023/04/22 01:41:57;;;;;;;;;;;;;;;;;;1037446;28;3976;-53
2023/04/22 01:42:27;;;;;;;;;;;;;;;;;;1038032;28;2900;-53
2023/04/22 01:42:58;;;;;;;;;;;;;;;;;;1037095;28;4100;-54
2023/04/22 01:43:29;;;;;;;;;;;;;;;;;;1037925;28;3134;-49
2023/04/22 01:44:01;;;;;;;;;;;;;;;;;;1038367;28;3868;-54
2023/04/22 01:44:32;;;;;;;;;;;;;;;;;;1038484;28;1868;-55
2023/04/22 01:45:02;;;;;;;;;;;;;;;;;;1038092;28;4125;-50
2023/04/22 01:45:33;;;;;;;;;;;;;;;;;;1037565;28;2960;-52
2023/04/22 01:46:04;;;;;;;;;;;;;;;;;;1038667;28;3789;-53
2023/04/22 01:46:34;;;;;;;;;;;;;;;;;;1038091;28;3976;-56
2023/04/22 01:47:04;;;;;;;;;;;;;;;;;;1035219;28;1714;-48
2023/04/22 01:47:35;;;;;;;;;;;;;;;;;;1033671;28;4218;-51
2023/04/22 01:48:09;;;;;;;;;;;;;;;;;;1033746;28;3158;-48
2023/04/22 01:48:40;;;;;;;;;;;;;;;;;;1032988;28;4092;-49
2023/04/22 01:49:10;;;;;;;;;;;;;;;;;;1032875;28;2825;-54
2023/04/22 01:49:40;;;;;;;;;;;;;;;;;;1034536;28;3972;-51
2023/04/22 01:50:11;;;;;;;;;;;;;;;;;;1034628;28;1831;-55
2023/04/22 01:50:41;;;;;;;;;;;;;;;;;;1032468;28;3904;-50
2023/04/22 01:51:11;;;;;;;;;;;;;;;;;;1034668;28;3101;-54
2023/04/22 01:51:41;;;;;;;;;;;;;;;;;;1034333;28;4067;-54
2023/04/22 01:52:12;;;;;;;;;;;;;;;;;;1034419;28;1760;-52
2023/04/22 01:52:42;;;;;;;;;;;;;;;;;;1033355;28;3980;-54
2023/04/22 01:53:12;;;;;;;;;;;;;;;;;;1034507;28;1811;-54
2023/04/22 01:53:43;;;;;;;;;;;;;;;;;;1034361;28;4083;-49
2023/04/22 01:54:13;;;;;;;;;;;;;;;;;;1034744;28;1993;-49
2023/04/22 01:54:44;;;;;;;;;;;;;;;;;;1034354;28;4377;-53
2023/04/22 01:55:14;;;;;;;;;;;;;;;;;;1034948;28;1733;-51
2023/04/22 01:55:45;;;;;;;;;;;;;;;;;;1037026;28;3919;-48
2023/04/22 01:56:15;;;;;;;;;;;;;;;;;;1037110;28;2572;-49
2023/04/22 01:56:52;;;;;;;;;;;;;;;;;;1037806;28;3879;-49
2023/04/22 01:57:22;;;;;;;;;;;;;;;;;;1037186;28;3071;-53
2023/04/22 01:57:52;;;;;;;;;;;;;;;;;;1032796;28;4129;-52
2023/04/22 01:58:23;;;;;;;;;;;;;;;;;;1035015;28;1564;-50
2023/04/22 01:58:53;;;;;;;;;;;;;;;;;;1033747;28;4033;-47
2023/04/22 01:59:23;;;;;;;;;;;;;;;;;;1033185;28;3021;-47
2023/04/22 01:59:53;;;;;;;;;;;;;;;;;;1034054;28;4050;-53
2023/04/22 02:00:24;;;;;;;;;;;;;;;;;;1034675;28;1700;-55
2023/04/22 02:00:54;;;;;;;;;;;;;;;;;;1033187;28;4220;-52
2023/04/22 02:01:24;;;;;;;;;;;;;;;;;;1033989;28;3225;-50
2023/04/22 02:01:54;;;;;;;;;;;;;;;;;;1032947;28;4048;-52
2023/04/22 02:02:25;;;;;;;;;;;;;;;;;;1034717;28;1983;-50
2023/04/22 02:02:56;;;;;;;;;;;;;;;;;;1033869;28;4071;-50
2023/04/22 02:03:26;;;;;;;;;;;;;;;;;;1034404;28;2994;-47
2023/04/22 02:03:56;;;;;;;;;;;;;;;;;;1033359;28;3979;-51
2023/04/22 02:04:26;;;;;;;;;;;;;;;;;;1035522;28;1625;-49
2023/04/22 02:04:57;;;;;;;;;;;;;;;;;;1033637;28;3858;-52
2023/04/22 02:05:27;;;;;;;;;;;;;;;;;;1037862;28;1867;-51
2023/04/22 02:05:57;;;;;;;;;;;;;;;;;;1038051;28;3776;-52
2023/04/22 02:06:27;;;;;;;;;;;;;;;;;;1038505;28;1628;-52
2023/04/22 02:06:58;;;;;;;;;;;;;;;;;;1037556;28;3765;-48
2023/04/22 02:07:28;;;;;;;;;;;;;;;;;;1034325;28;1923;-53
2023/04/22 02:07:58;;;;;;;;;;;;;;;;;;1033737;28;3917;-54
2023/04/22 02:08:29;;;;;;;;;;;;;;;;;;1033999;28;2979;-50
2023/04/22 02:08:59;;;;;;;;;;;;;;;;;;1033512;28;3944;-54
2023/04/22 02:09:29;;;;;;;;;;;;;;;;;;1032528;28;3631;-55
2023/04/22 02:10:00;;;;;;;;;;;;;;;;;;1034489;28;3794;-49
2023/04/22 02:10:31;;;;;;;;;;;;;;;;;;1034244;28;1669;-51
2023/04/22 02:11:01;;;;;;;;;;;;;;;;;;1033668;28;3717;-54
2023/04/22 02:11:31;;;;;;;;;;;;;;;;;;1033675;28;2764;-49
2023/04/22 02:12:02;;;;;;;;;;;;;;;;;;1033279;28;3795;-55
2023/04/22 02:12:32;;;;;;;;;;;;;;;;;;1038467;28;2042;-51
2023/04/22 02:13:02;;;;;;;;;;;;;;;;;;1036620;28;4090;-52
2023/04/22 02:13:34;;;;;;;;;;;;;;;;;;1037738;28;2987;-52
2023/04/22 02:14:04;;;;;;;;;;;;;;;;;;1036776;28;3852;-54
2023/04/22 02:14:34;;;;;;;;;;;;;;;;;;1035923;28;4218;-50
2023/04/22 02:15:05;;;;;;;;;;;;;;;;;;1033924;28;2847;-49
2023/04/22 02:15:35;;;;;;;;;;;;;;;;;;1033393;28;4100;-52
2023/04/22 02:16:06;;;;;;;;;;;;;;;;;;1033738;28;3110;-54
2023/04/22 02:16:36;;;;;;;;;;;;;;;;;;1034051;28;4090;-52
2023/04/22 02:17:06;;;;;;;;;;;;;;;;;;1034342;28;1701;-52
2023/04/22 02:17:38;;;;;;;;;;;;;;;;;;1034491;28;4168;-51
2023/04/22 02:18:09;;;;;;;;;;;;;;;;;;1033495;28;3144;-51
2023/04/22 02:18:39;;;;;;;;;;;;;;;;;;1033923;28;3969;-48
2023/04/22 02:19:09;;;;;;;;;;;;;;;;;;1033356;28;2934;-54
2023/04/22 02:19:39;;;;;;;;;;;;;;;;;;1032874;28;3879;-49
2023/04/22 02:20:10;;;;;;;;;;;;;;;;;;1033888;28;2983;-51
2023/04/22 02:20:40;;;;;;;;;;;;;;;;;;1037178;28;4107;-51
2023/04/22 02:21:11;;;;;;;;;;;;;;;;;;1037943;28;2875;-48
2023/04/22 02:21:41;;;;;;;;;;;;;;;;;;1036811;28;4044;-51
2023/04/22 02:22:11;;;;;;;;;;;;;;;;;;1035780;28;1747;-49
2023/04/22 02:22:42;;;;;;;;;;;;;;;;;;1033865;28;4055;-50
2023/04/22 02:23:13;;;;;;;;;;;;;;;;;;1034237;28;1695;-48
2023/04/22 02:23:43;;;;;;;;;;;;;;;;;;1034150;28;3896;-48
2023/04/22 02:24:13;;;;;;;;;;;;;;;;;;1033290;28;2959;-49
2023/04/22 02:24:44;;;;;;;;;;;;;;;;;;1031898;28;4070;-52
2023/04/22 02:25:14;;;;;;;;;;;;;;;;;;1033574;28;2959;-54
2023/04/22 02:25:51;;;;;;;;;;;;;;;;;;1034522;28;3956;-49
2023/04/22 02:26:22;;;;;;;;;;;;;;;;;;1033722;28;2891;-54
2023/04/22 02:26:52;;;;;;;;;;;;;;;;;;1033081;28;4383;-51
2023/04/22 02:27:23;;;;;;;;;;;;;;;;;;1033256;28;2889;-53
2023/04/22 02:27:53;;;;;;;;;;;;;;;;;;1033899;28;4007;-51
2023/04/22 02:28:23;;;;;;;;;;;;;;;;;;1033186;28;3236;-51
2023/04/22 02:28:54;;;;;;;;;;;;;;;;;;1032963;28;4196;-51
2023/04/22 02:29:24;;;;;;;;;;;;;;;;;;1032534;28;5198;-53
2023/04/22 02:29:54;;;;;;;;;;;;;;;;;;1031868;28;4033;-49
2023/04/22 02:30:25;;;;;;;;;;;;;;;;;;1034341;28;1712;-48
2023/04/22 02:30:55;;;;;;;;;;;;;;;;;;1033817;28;3890;-53
2023/04/22 02:31:25;;;;;;;;;;;;;;;;;;1033947;28;2862;-47
2023/04/22 02:31:56;;;;;;;;;;;;;;;;;;1034315;28;3837;-51
2023/04/22 02:32:26;;;;;;;;;;;;;;;;;;1034566;28;2217;-50
2023/04/22 02:32:56;;;;;;;;;;;;;;;;;;1032591;28;4093;-46
2023/04/22 02:33:26;;;;;;;;;;;;;;;;;;1034705;28;1830;-50
2023/04/22 02:33:57;;;;;;;;;;;;;;;;;;1033339;28;3822;-51
2023/04/22 02:34:27;;;;;;;;;;;;;;;;;;1034097;28;1829;-50
2023/04/22 02:34:57;;;;;;;;;;;;;;;;;;1034321;28;3997;-50
2023/04/22 02:35:28;;;;;;;;;;;;;;;;;;1034669;28;2742;-53
2023/04/22 02:35:58;;;;;;;;;;;;;;;;;;1034201;28;3916;-47
2023/04/22 02:36:28;;;;;;;;;;;;;;;;;;1034117;28;1744;-49
2023/04/22 02:36:58;;;;;;;;;;;;;;;;;;1032930;28;3946;-52
2023/04/22 02:37:29;;;;;;;;;;;;;;;;;;1034396;28;1667;-47
2023/04/22 02:38:00;;;;;;;;;;;;;;;;;;1033447;28;4395;-48
2023/04/22 02:38:30;;;;;;;;;;;;;;;;;;1035542;28;1861;-48
2023/04/22 02:39:02;;;;;;;;;;;;;;;;;;1031685;28;3797;-56
2023/04/22 02:39:32;;;;;;;;;;;;;;;;;;1034980;28;1701;-54
2023/04/22 02:40:03;;;;;;;;;;;;;;;;;;1034328;28;3858;-49
2023/04/22 02:40:33;;;;;;;;;;;;;;;;;;1033678;28;4045;-52
2023/04/22 02:41:04;;;;;;;;;;;;;;;;;;1034140;28;2754;-50
2023/04/22 02:41:34;;;;;;;;;;;;;;;;;;1032865;28;4059;-53
2023/04/22 02:42:04;;;;;;;;;;;;;;;;;;1034107;28;1960;-50
2023/04/22 02:42:34;;;;;;;;;;;;;;;;;;1034076;28;4129;-51
2023/04/22 02:43:05;;;;;;;;;;;;;;;;;;1034458;28;1748;-52
2023/04/22 02:43:35;;;;;;;;;;;;;;;;;;1033548;28;3885;-53
2023/04/22 02:44:05;;;;;;;;;;;;;;;;;;1032796;28;3104;-49
2023/04/22 02:44:36;;;;;;;;;;;;;;;;;;1032879;28;3873;-52
2023/04/22 02:45:06;;;;;;;;;;;;;;;;;;1033448;28;3016;-53
2023/04/22 02:45:36;;;;;;;;;;;;;;;;;;1033992;28;4066;-53
2023/04/22 02:46:09;;;;;;;;;;;;;;;;;;1035327;28;1764;-55
2023/04/22 02:46:39;;;;;;;;;;;;;;;;;;1033376;28;4139;-52
2023/04/22 02:47:09;;;;;;;;;;;;;;;;;;1033887;28;3257;-50
2023/04/22 02:47:41;;;;;;;;;;;;;;;;;;1033539;28;4022;-53
2023/04/22 02:48:11;;;;;;;;;;;;;;;;;;1034547;28;1903;-50
2023/04/22 02:48:42;;;;;;;;;;;;;;;;;;1033714;28;4024;-50
2023/04/22 02:49:12;;;;;;;;;;;;;;;;;;1032612;28;2940;-53
2023/04/22 02:49:42;;;;;;;;;;;;;;;;;;1034137;28;4038;-53
2023/04/22 02:50:12;;;;;;;;;;;;;;;;;;1038056;28;1717;-51
2023/04/22 02:50:43;;;;;;;;;;;;;;;;;;1035925;28;3889;-49
2023/04/22 02:51:13;;;;;;;;;;;;;;;;;;1038428;28;2881;-50
2023/04/22 02:51:43;;;;;;;;;;;;;;;;;;1037087;28;4278;-54
2023/04/22 02:52:14;;;;;;;;;;;;;;;;;;1035925;28;1676;-50
2023/04/22 02:52:44;;;;;;;;;;;;;;;;;;1034146;28;3992;-53
2023/04/22 02:53:14;;;;;;;;;;;;;;;;;;1033858;28;3564;-52
2023/04/22 02:53:45;;;;;;;;;;;;;;;;;;1034409;28;3902;-52
2023/04/22 02:54:15;;;;;;;;;;;;;;;;;;1034790;28;1697;-50
2023/04/22 02:54:45;;;;;;;;;;;;;;;;;;1035627;28;3998;-50
2023/04/22 02:55:16;;;;;;;;;;;;;;;;;;1038723;28;3103;-51
2023/04/22 02:55:46;;;;;;;;;;;;;;;;;;1037994;28;4038;-53
2023/04/22 02:56:16;;;;;;;;;;;;;;;;;;1037642;28;2844;-47
2023/04/22 02:56:46;;;;;;;;;;;;;;;;;;1033092;28;3935;-52
2023/04/22 02:57:17;;;;;;;;;;;;;;;;;;1034757;28;1786;-51
2023/04/22 02:57:47;;;;;;;;;;;;;;;;;;1033321;28;3908;-50
2023/04/22 02:58:17;;;;;;;;;;;;;;;;;;1035790;28;2373;-51
2023/04/22 02:58:48;;;;;;;;;;;;;;;;;;1033603;28;4378;-50
2023/04/22 02:59:18;;;;;;;;;;;;;;;;;;1033850;28;4788;-52
2023/04/22 02:59:48;;;;;;;;;;;;;;;;;;1033831;28;4045;-47
2023/04/22 03:00:19;;;;;;;;;;;;;;;;;;1034479;28;3241;-50
2023/04/22 03:00:49;;;;;;;;;;;;;;;;;;1033325;28;4246;-49
2023/04/22 03:01:19;;;;;;;;;;;;;;;;;;1033975;28;2969;-50
2023/04/22 03:01:49;;;;;;;;;;;;;;;;;;1033940;28;4035;-46
2023/04/22 03:02:20;;;;;;;;;;;;;;;;;;1033666;28;3087;-52
2023/04/22 03:02:50;;;;;;;;;;;;;;;;;;1035386;28;4442;-52
2023/04/22 03:03:21;;;;;;;;;;;;;;;;;;1034308;28;2847;-50
2023/04/22 03:03:51;;;;;;;;;;;;;;;;;;1033985;28;4270;-52
2023/04/22 03:04:22;;;;;;;;;;;;;;;;;;1033233;28;3092;-49
2023/04/22 03:04:53;;;;;;;;;;;;;;;;;;1032421;28;3903;-51
2023/04/22 03:05:23;;;;;;;;;;;;;;;;;;1034043;28;2809;-51
2023/04/22 03:05:54;;;;;;;;;;;;;;;;;;1033081;28;3874;-48
2023/04/22 03:06:24;;;;;;;;;;;;;;;;;;1034843;28;3068;-50
2023/04/22 03:06:55;;;;;;;;;;;;;;;;;;1033267;28;4078;-49
2023/04/22 03:07:25;;;;;;;;;;;;;;;;;;1034963;28;3183;-56
2023/04/22 03:07:55;;;;;;;;;;;;;;;;;;1033142;28;4117;-48
2023/04/22 03:08:26;;;;;;;;;;;;;;;;;;1034723;28;1726;-49
2023/04/22 03:08:56;;;;;;;;;;;;;;;;;;1033878;28;3937;-51
2023/04/22 03:09:26;;;;;;;;;;;;;;;;;;1033930;28;2036;-53
2023/04/22 03:09:56;;;;;;;;;;;;;;;;;;1034691;28;3929;-54
2023/04/22 03:10:27;;;;;;;;;;;;;;;;;;1034140;28;1713;-48
2023/04/22 03:10:57;;;;;;;;;;;;;;;;;;1033679;28;4059;-53
2023/04/22 03:11:27;;;;;;;;;;;;;;;;;;1037433;28;3054;-48
2023/04/22 03:11:57;;;;;;;;;;;;;;;;;;1037175;28;3839;-53
2023/04/22 03:12:28;;;;;;;;;;;;;;;;;;1036169;28;2947;-48
2023/04/22 03:12:58;;;;;;;;;;;;;;;;;;1038342;28;4161;-52
2023/04/22 03:13:28;;;;;;;;;;;;;;;;;;1033583;28;2937;-49
2023/04/22 03:13:59;;;;;;;;;;;;;;;;;;1033466;28;4033;-57
2023/04/22 03:14:29;;;;;;;;;;;;;;;;;;1033697;28;2961;-47
2023/04/22 03:14:59;;;;;;;;;;;;;;;;;;1033248;28;3826;-52
2023/04/22 03:15:29;;;;;;;;;;;;;;;;;;1032619;28;3243;-51
2023/04/22 03:16:00;;;;;;;;;;;;;;;;;;1034489;28;3970;-47
2023/04/22 03:16:30;;;;;;;;;;;;;;;;;;1033380;28;2869;-52
2023/04/22 03:17:00;;;;;;;;;;;;;;;;;;1034048;28;3992;-55
2023/04/22 03:17:31;;;;;;;;;;;;;;;;;;1034472;28;2976;-54
2023/04/22 03:18:02;;;;;;;;;;;;;;;;;;1032624;28;4195;-52
2023/04/22 03:18:32;;;;;;;;;;;;;;;;;;1035539;28;1904;-53
2023/04/22 03:19:02;;;;;;;;;;;;;;;;;;1034418;28;3933;-50
2023/04/22 03:19:32;;;;;;;;;;;;;;;;;;1033965;28;1875;-53
2023/04/22 03:20:03;;;;;;;;;;;;;;;;;;1034111;28;3774;-49
2023/04/22 03:20:34;;;;;;;;;;;;;;;;;;1032175;28;3923;-51
2023/04/22 03:21:05;;;;;;;;;;;;;;;;;;1034590;28;1778;-49
2023/04/22 03:21:35;;;;;;;;;;;;;;;;;;1033340;28;3927;-48
2023/04/22 03:22:05;;;;;;;;;;;;;;;;;;1034467;28;2372;-52
2023/04/22 03:22:36;;;;;;;;;;;;;;;;;;1033697;28;4171;-51
2023/04/22 03:23:07;;;;;;;;;;;;;;;;;;1034513;28;1617;-50
2023/04/22 03:23:38;;;;;;;;;;;;;;;;;;1032794;28;3825;-51
2023/04/22 03:24:08;;;;;;;;;;;;;;;;;;1033994;28;2584;-53
2023/04/22 03:24:38;;;;;;;;;;;;;;;;;;1034288;28;4245;-54
2023/04/22 03:25:09;;;;;;;;;;;;;;;;;;1034723;28;1666;-48
2023/04/22 03:25:40;;;;;;;;;;;;;;;;;;1033153;28;4193;-47
2023/04/22 03:26:10;;;;;;;;;;;;;;;;;;1035026;28;3249;-52
2023/04/22 03:26:41;;;;;;;;;;;;;;;;;;1034312;28;3903;-46
2023/04/22 03:27:11;;;;;;;;;;;;;;;;;;1033686;28;3213;-51
2023/04/22 03:27:41;;;;;;;;;;;;;;;;;;1036980;28;3961;-50
2023/04/22 03:28:12;;;;;;;;;;;;;;;;;;1038645;28;2833;-50
2023/04/22 03:28:42;;;;;;;;;;;;;;;;;;1036805;28;4245;-54
2023/04/22 03:29:12;;;;;;;;;;;;;;;;;;1039761;28;1948;-52
2023/04/22 03:29:42;;;;;;;;;;;;;;;;;;1033327;28;3996;-52
2023/04/22 03:30:13;;;;;;;;;;;;;;;;;;1033411;28;2825;-54
2023/04/22 03:30:43;;;;;;;;;;;;;;;;;;1034806;28;3953;-55
2023/04/22 03:31:13;;;;;;;;;;;;;;;;;;1034594;28;1844;-52
2023/04/22 03:31:44;;;;;;;;;;;;;;;;;;1033920;28;3903;-51
2023/04/22 03:32:14;;;;;;;;;;;;;;;;;;1033406;28;3044;-53